sensor_id;sensor_type;location;lat;lon;timestamp;temperature;humidity
3846;DHT22;1938;50.812;7.738;2023-03-17T00:00:31;5.90;99.90
3846;DHT22;1938;50.812;7.738;2023-03-17T00:02:58;6.00;99.90
3846;DHT22;1938;50.812;7.738;2023-03-17T00:05:29;5.90;99.90
3846;DHT22;1938;50.812;7.738;2023-03-17T00:08:00;5.80;99.90
3846;DHT22;1938;50.812;7.738;2023-03-17T00:10:28;5.80;99.90
3846;DHT22;1938;50.812;7.738;2023-03-17T00:12:54;5.70;99.90
3846;DHT22;1938;50.812;7.738;2023-03-17T00:15:21;5.70;99.90
3846;DHT22;1938;50.812;7.738;2023-03-17T00:17:47;5.70;99.90
3846;DHT22;1938;50.812;7.738;2023-03-17T00:20:24;5.70;99.90
3846;DHT22;1938;50.812;7.738;2023-03-17T00:22:50;5.70;99.90
3846;DHT22;1938;50.812;7.738;2023-03-17T00:25:26;5.70;99.90
3846;DHT22;1938;50.812;7.738;2023-03-17T00:27:52;5.70;99.90
3846;DHT22;1938;50.812;7.738;2023-03-17T00:30:19;5.60;1.00
3846;DHT22;1938;50.812;7.738;2023-03-17T00:32:48;5.60;1.00
3846;DHT22;1938;50.812;7.738;2023-03-17T00:35:20;5.70;1.00
3846;DHT22;1938;50.812;7.738;2023-03-17T00:37:47;5.60;1.00
3846;DHT22;1938;50.812;7.738;2023-03-17T00:40:30;5.60;1.00
3846;DHT22;1938;50.812;7.738;2023-03-17T00:42:57;5.50;1.00
3846;DHT22;1938;50.812;7.738;2023-03-17T00:45:25;5.40;1.00
3846;DHT22;1938;50.812;7.738;2023-03-17T00:47:53;5.50;1.00
3846;DHT22;1938;50.812;7.738;2023-03-17T00:50:23;5.40;1.00
3846;DHT22;1938;50.812;7.738;2023-03-17T00:52:51;5.40;1.00
3846;DHT22;1938;50.812;7.738;2023-03-17T00:55:18;5.40;1.00
3846;DHT22;1938;50.812;7.738;2023-03-17T00:57:46;5.30;1.00
3846;DHT22;1938;50.812;7.738;2023-03-17T01:00:24;5.30;1.00
3846;DHT22;1938;50.812;7.738;2023-03-17T01:02:51;5.30;1.00
3846;DHT22;1938;50.812;7.738;2023-03-17T01:05:18;5.20;1.00
3846;DHT22;1938;50.812;7.738;2023-03-17T01:07:45;5.30;1.00
3846;DHT22;1938;50.812;7.738;2023-03-17T01:10:18;5.30;1.00
3846;DHT22;1938;50.812;7.738;2023-03-17T01:12:44;5.30;1.00
3846;DHT22;1938;50.812;7.738;2023-03-17T01:15:14;5.30;1.00
3846;DHT22;1938;50.812;7.738;2023-03-17T01:17:40;5.20;1.00
3846;DHT22;1938;50.812;7.738;2023-03-17T01:20:07;5.20;1.00
3846;DHT22;1938;50.812;7.738;2023-03-17T01:22:34;5.20;1.00
3846;DHT22;1938;50.812;7.738;2023-03-17T01:25:00;5.10;1.00
3846;DHT22;1938;50.812;7.738;2023-03-17T01:27:27;5.10;1.00
3846;DHT22;1938;50.812;7.738;2023-03-17T01:29:54;5.10;1.00
3846;DHT22;1938;50.812;7.738;2023-03-17T01:32:20;5.10;1.00
3846;DHT22;1938;50.812;7.738;2023-03-17T01:34:46;5.20;1.00
3846;DHT22;1938;50.812;7.738;2023-03-17T01:37:12;5.20;1.00
3846;DHT22;1938;50.812;7.738;2023-03-17T01:39:39;5.30;1.00
3846;DHT22;1938;50.812;7.738;2023-03-17T01:42:06;5.30;1.00
3846;DHT22;1938;50.812;7.738;2023-03-17T01:44:32;5.30;1.00
3846;DHT22;1938;50.812;7.738;2023-03-17T01:46:57;5.40;1.00
3846;DHT22;1938;50.812;7.738;2023-03-17T01:49:28;5.40;1.00
3846;DHT22;1938;50.812;7.738;2023-03-17T01:54:44;5.50;1.00
3846;DHT22;1938;50.812;7.738;2023-03-17T01:59:57;5.60;1.00
3846;DHT22;1938;50.812;7.738;2023-03-17T02:02:30;5.50;1.00
3846;DHT22;1938;50.812;7.738;2023-03-17T02:04:57;5.40;1.00
3846;DHT22;1938;50.812;7.738;2023-03-17T02:07:23;5.40;1.00
3846;DHT22;1938;50.812;7.738;2023-03-17T02:09:51;5.40;1.00
3846;DHT22;1938;50.812;7.738;2023-03-17T02:12:20;5.30;1.00
3846;DHT22;1938;50.812;7.738;2023-03-17T02:14:46;5.30;1.00
3846;DHT22;1938;50.812;7.738;2023-03-17T02:17:12;5.20;1.00
3846;DHT22;1938;50.812;7.738;2023-03-17T02:19:37;5.20;1.00
3846;DHT22;1938;50.812;7.738;2023-03-17T02:22:04;5.10;1.00
3846;DHT22;1938;50.812;7.738;2023-03-17T02:24:41;5.00;1.00
3846;DHT22;1938;50.812;7.738;2023-03-17T02:27:25;4.80;1.00
3846;DHT22;1938;50.812;7.738;2023-03-17T02:29:53;4.80;1.00
3846;DHT22;1938;50.812;7.738;2023-03-17T02:32:18;4.70;17.90
3846;DHT22;1938;50.812;7.738;2023-03-17T02:34:45;4.70;31.50
3846;DHT22;1938;50.812;7.738;2023-03-17T02:37:11;4.60;25.70
3846;DHT22;1938;50.812;7.738;2023-03-17T02:39:37;4.60;38.50
3846;DHT22;1938;50.812;7.738;2023-03-17T02:42:04;4.60;57.40
3846;DHT22;1938;50.812;7.738;2023-03-17T02:44:31;4.60;55.50
3846;DHT22;1938;50.812;7.738;2023-03-17T02:46:57;4.60;94.70
3846;DHT22;1938;50.812;7.738;2023-03-17T02:49:23;4.60;48.60
3846;DHT22;1938;50.812;7.738;2023-03-17T02:52:17;4.60;32.30
3846;DHT22;1938;50.812;7.738;2023-03-17T02:54:42;4.70;2.50
3846;DHT22;1938;50.812;7.738;2023-03-17T02:57:08;4.60;16.80
3846;DHT22;1938;50.812;7.738;2023-03-17T02:59:35;4.60;5.00
3846;DHT22;1938;50.812;7.738;2023-03-17T03:02:01;4.60;34.00
3846;DHT22;1938;50.812;7.738;2023-03-17T03:04:27;4.60;39.20
3846;DHT22;1938;50.812;7.738;2023-03-17T03:06:53;4.50;20.40
3846;DHT22;1938;50.812;7.738;2023-03-17T03:09:19;4.50;26.50
3846;DHT22;1938;50.812;7.738;2023-03-17T03:11:46;4.50;20.30
3846;DHT22;1938;50.812;7.738;2023-03-17T03:14:11;4.40;41.90
3846;DHT22;1938;50.812;7.738;2023-03-17T03:16:38;4.40;98.00
3846;DHT22;1938;50.812;7.738;2023-03-17T03:19:04;4.40;74.50
3846;DHT22;1938;50.812;7.738;2023-03-17T03:21:30;4.30;95.20
3846;DHT22;1938;50.812;7.738;2023-03-17T03:23:56;4.30;99.90
3846;DHT22;1938;50.812;7.738;2023-03-17T03:26:22;4.30;99.90
3846;DHT22;1938;50.812;7.738;2023-03-17T03:28:48;4.30;99.90
3846;DHT22;1938;50.812;7.738;2023-03-17T03:31:14;4.20;99.90
3846;DHT22;1938;50.812;7.738;2023-03-17T03:33:40;4.30;98.90
3846;DHT22;1938;50.812;7.738;2023-03-17T03:36:06;4.30;72.20
3846;DHT22;1938;50.812;7.738;2023-03-17T03:38:33;4.30;63.50
3846;DHT22;1938;50.812;7.738;2023-03-17T03:40:58;4.30;52.30
3846;DHT22;1938;50.812;7.738;2023-03-17T03:43:25;4.30;73.10
3846;DHT22;1938;50.812;7.738;2023-03-17T03:45:51;4.30;63.40
3846;DHT22;1938;50.812;7.738;2023-03-17T03:48:17;4.20;94.30
3846;DHT22;1938;50.812;7.738;2023-03-17T03:50:43;4.20;89.40
3846;DHT22;1938;50.812;7.738;2023-03-17T03:53:09;4.20;81.40
3846;DHT22;1938;50.812;7.738;2023-03-17T03:55:35;4.20;83.00
3846;DHT22;1938;50.812;7.738;2023-03-17T03:58:00;4.10;99.90
3846;DHT22;1938;50.812;7.738;2023-03-17T04:00:26;4.20;75.80
3846;DHT22;1938;50.812;7.738;2023-03-17T04:02:51;4.20;66.10
3846;DHT22;1938;50.812;7.738;2023-03-17T04:05:18;4.30;48.70
3846;DHT22;1938;50.812;7.738;2023-03-17T04:07:44;4.20;36.30
3846;DHT22;1938;50.812;7.738;2023-03-17T04:10:11;4.30;10.10
3846;DHT22;1938;50.812;7.738;2023-03-17T04:12:37;4.30;1.00
3846;DHT22;1938;50.812;7.738;2023-03-17T04:15:07;4.30;1.00
3846;DHT22;1938;50.812;7.738;2023-03-17T04:17:33;4.30;1.10
3846;DHT22;1938;50.812;7.738;2023-03-17T04:19:59;4.30;4.90
3846;DHT22;1938;50.812;7.738;2023-03-17T04:22:25;4.40;1.00
3846;DHT22;1938;50.812;7.738;2023-03-17T04:24:52;4.30;1.00
3846;DHT22;1938;50.812;7.738;2023-03-17T04:27:18;4.30;5.00
3846;DHT22;1938;50.812;7.738;2023-03-17T04:29:43;4.20;1.00
3846;DHT22;1938;50.812;7.738;2023-03-17T04:32:12;4.00;24.00
3846;DHT22;1938;50.812;7.738;2023-03-17T04:34:38;4.00;60.50
3846;DHT22;1938;50.812;7.738;2023-03-17T04:37:04;4.00;73.50
3846;DHT22;1938;50.812;7.738;2023-03-17T04:39:31;4.10;26.60
3846;DHT22;1938;50.812;7.738;2023-03-17T04:41:57;4.20;1.00
3846;DHT22;1938;50.812;7.738;2023-03-17T04:44:22;4.10;33.20
3846;DHT22;1938;50.812;7.738;2023-03-17T04:46:48;4.10;25.60
3846;DHT22;1938;50.812;7.738;2023-03-17T04:49:13;4.00;29.10
3846;DHT22;1938;50.812;7.738;2023-03-17T04:51:39;4.10;15.40
3846;DHT22;1938;50.812;7.738;2023-03-17T04:54:05;4.10;22.30
3846;DHT22;1938;50.812;7.738;2023-03-17T04:56:32;4.10;27.10
3846;DHT22;1938;50.812;7.738;2023-03-17T04:58:57;3.90;48.00
3846;DHT22;1938;50.812;7.738;2023-03-17T05:01:23;3.90;62.00
3846;DHT22;1938;50.812;7.738;2023-03-17T05:03:49;3.90;97.30
3846;DHT22;1938;50.812;7.738;2023-03-17T05:06:15;3.90;58.70
3846;DHT22;1938;50.812;7.738;2023-03-17T05:08:41;3.90;52.70
3846;DHT22;1938;50.812;7.738;2023-03-17T05:11:09;3.90;50.10
3846;DHT22;1938;50.812;7.738;2023-03-17T05:13:35;3.90;40.70
3846;DHT22;1938;50.812;7.738;2023-03-17T05:16:02;3.80;87.60
3846;DHT22;1938;50.812;7.738;2023-03-17T05:18:28;3.70;97.90
3846;DHT22;1938;50.812;7.738;2023-03-17T05:20:54;3.60;99.90
3846;DHT22;1938;50.812;7.738;2023-03-17T05:23:20;3.60;99.90
3846;DHT22;1938;50.812;7.738;2023-03-17T05:25:47;3.50;99.90
3846;DHT22;1938;50.812;7.738;2023-03-17T05:28:13;3.30;99.90
3846;DHT22;1938;50.812;7.738;2023-03-17T05:30:40;3.30;99.90
3846;DHT22;1938;50.812;7.738;2023-03-17T05:33:06;3.30;99.90
3846;DHT22;1938;50.812;7.738;2023-03-17T05:35:32;3.30;99.90
3846;DHT22;1938;50.812;7.738;2023-03-17T05:37:58;3.40;99.90
3846;DHT22;1938;50.812;7.738;2023-03-17T05:40:23;3.50;99.90
3846;DHT22;1938;50.812;7.738;2023-03-17T05:42:52;3.60;99.90
3846;DHT22;1938;50.812;7.738;2023-03-17T05:45:18;3.70;99.90
3846;DHT22;1938;50.812;7.738;2023-03-17T05:47:44;3.70;99.90
3846;DHT22;1938;50.812;7.738;2023-03-17T05:50:10;3.70;99.90
3846;DHT22;1938;50.812;7.738;2023-03-17T05:52:37;3.70;99.90
3846;DHT22;1938;50.812;7.738;2023-03-17T05:55:04;3.70;99.90
3846;DHT22;1938;50.812;7.738;2023-03-17T05:57:30;3.70;99.90
3846;DHT22;1938;50.812;7.738;2023-03-17T05:59:56;3.80;99.90
3846;DHT22;1938;50.812;7.738;2023-03-17T06:02:22;3.90;56.80
3846;DHT22;1938;50.812;7.738;2023-03-17T06:04:47;3.90;18.40
3846;DHT22;1938;50.812;7.738;2023-03-17T06:07:14;4.00;34.20
3846;DHT22;1938;50.812;7.738;2023-03-17T06:09:39;4.10;1.00
3846;DHT22;1938;50.812;7.738;2023-03-17T06:12:06;4.20;1.00
3846;DHT22;1938;50.812;7.738;2023-03-17T06:14:33;4.40;1.00
3846;DHT22;1938;50.812;7.738;2023-03-17T06:16:58;4.40;1.00
3846;DHT22;1938;50.812;7.738;2023-03-17T06:19:24;4.50;1.00
3846;DHT22;1938;50.812;7.738;2023-03-17T06:21:50;4.70;1.00
3846;DHT22;1938;50.812;7.738;2023-03-17T06:24:16;4.70;1.00
3846;DHT22;1938;50.812;7.738;2023-03-17T06:26:42;4.70;1.00
3846;DHT22;1938;50.812;7.738;2023-03-17T06:29:09;4.80;1.00
3846;DHT22;1938;50.812;7.738;2023-03-17T06:31:36;5.00;1.00
3846;DHT22;1938;50.812;7.738;2023-03-17T06:34:02;5.10;1.00
3846;DHT22;1938;50.812;7.738;2023-03-17T06:36:30;5.30;99.90
3846;DHT22;1938;50.812;7.738;2023-03-17T06:38:56;5.30;99.90
3846;DHT22;1938;50.812;7.738;2023-03-17T06:41:22;5.30;99.90
3846;DHT22;1938;50.812;7.738;2023-03-17T06:43:48;5.50;99.90
3846;DHT22;1938;50.812;7.738;2023-03-17T06:46:14;5.50;99.90
3846;DHT22;1938;50.812;7.738;2023-03-17T06:48:39;5.60;99.90
3846;DHT22;1938;50.812;7.738;2023-03-17T06:51:05;5.60;99.90
3846;DHT22;1938;50.812;7.738;2023-03-17T06:53:30;5.70;99.90
3846;DHT22;1938;50.812;7.738;2023-03-17T06:55:57;5.90;99.90
3846;DHT22;1938;50.812;7.738;2023-03-17T06:58:23;6.10;99.90
3846;DHT22;1938;50.812;7.738;2023-03-17T07:00:49;6.30;99.90
3846;DHT22;1938;50.812;7.738;2023-03-17T07:03:18;6.50;99.90
3846;DHT22;1938;50.812;7.738;2023-03-17T07:05:45;6.80;99.90
3846;DHT22;1938;50.812;7.738;2023-03-17T07:08:11;7.00;99.90
3846;DHT22;1938;50.812;7.738;2023-03-17T07:10:37;7.10;99.90
3846;DHT22;1938;50.812;7.738;2023-03-17T07:13:03;7.20;99.90
3846;DHT22;1938;50.812;7.738;2023-03-17T07:15:33;7.20;99.90
3846;DHT22;1938;50.812;7.738;2023-03-17T07:18:00;7.30;99.90
3846;DHT22;1938;50.812;7.738;2023-03-17T07:20:26;7.40;99.90
3846;DHT22;1938;50.812;7.738;2023-03-17T07:22:52;7.50;99.90
3846;DHT22;1938;50.812;7.738;2023-03-17T07:25:18;7.50;99.90
3846;DHT22;1938;50.812;7.738;2023-03-17T07:27:44;7.60;99.90
3846;DHT22;1938;50.812;7.738;2023-03-17T07:30:11;7.70;99.90
3846;DHT22;1938;50.812;7.738;2023-03-17T07:32:37;7.90;99.90
3846;DHT22;1938;50.812;7.738;2023-03-17T07:35:04;8.10;99.90
3846;DHT22;1938;50.812;7.738;2023-03-17T07:37:30;8.30;99.90
3846;DHT22;1938;50.812;7.738;2023-03-17T07:39:56;8.60;90.40
3846;DHT22;1938;50.812;7.738;2023-03-17T07:42:21;9.10;59.50
3846;DHT22;1938;50.812;7.738;2023-03-17T07:44:48;9.40;37.20
3846;DHT22;1938;50.812;7.738;2023-03-17T07:47:13;9.80;31.30
3846;DHT22;1938;50.812;7.738;2023-03-17T07:49:39;10.30;25.00
3846;DHT22;1938;50.812;7.738;2023-03-17T07:52:05;10.60;23.90
3846;DHT22;1938;50.812;7.738;2023-03-17T07:54:31;10.70;19.30
3846;DHT22;1938;50.812;7.738;2023-03-17T07:56:57;11.10;22.10
3846;DHT22;1938;50.812;7.738;2023-03-17T07:59:23;12.30;23.20
3846;DHT22;1938;50.812;7.738;2023-03-17T08:01:49;13.80;32.20
3846;DHT22;1938;50.812;7.738;2023-03-17T08:04:16;14.60;39.10
3846;DHT22;1938;50.812;7.738;2023-03-17T08:06:42;15.60;48.40
3846;DHT22;1938;50.812;7.738;2023-03-17T08:09:08;17.00;61.60
3846;DHT22;1938;50.812;7.738;2023-03-17T08:11:35;17.70;73.50
3846;DHT22;1938;50.812;7.738;2023-03-17T08:14:04;18.70;90.40
3846;DHT22;1938;50.812;7.738;2023-03-17T08:16:30;19.20;96.90
3846;DHT22;1938;50.812;7.738;2023-03-17T08:18:55;19.40;99.30
3846;DHT22;1938;50.812;7.738;2023-03-17T08:21:26;20.20;99.90
3846;DHT22;1938;50.812;7.738;2023-03-17T08:23:53;20.90;99.90
3846;DHT22;1938;50.812;7.738;2023-03-17T08:26:18;21.50;99.90
3846;DHT22;1938;50.812;7.738;2023-03-17T08:28:45;22.10;99.90
3846;DHT22;1938;50.812;7.738;2023-03-17T08:31:16;22.60;99.90
3846;DHT22;1938;50.812;7.738;2023-03-17T08:33:47;22.30;99.90
3846;DHT22;1938;50.812;7.738;2023-03-17T08:36:13;22.00;99.90
3846;DHT22;1938;50.812;7.738;2023-03-17T08:38:40;21.50;99.90
3846;DHT22;1938;50.812;7.738;2023-03-17T08:41:09;20.10;99.90
3846;DHT22;1938;50.812;7.738;2023-03-17T08:43:38;17.60;56.20
3846;DHT22;1938;50.812;7.738;2023-03-17T08:46:12;15.70;33.90
3846;DHT22;1938;50.812;7.738;2023-03-17T08:48:38;14.50;19.80
3846;DHT22;1938;50.812;7.738;2023-03-17T08:51:07;13.50;11.50
3846;DHT22;1938;50.812;7.738;2023-03-17T08:53:34;13.20;4.70
3846;DHT22;1938;50.812;7.738;2023-03-17T08:56:01;12.80;1.60
3846;DHT22;1938;50.812;7.738;2023-03-17T08:58:26;12.70;1.00
3846;DHT22;1938;50.812;7.738;2023-03-17T09:00:52;12.60;1.00
3846;DHT22;1938;50.812;7.738;2023-03-17T09:03:19;12.70;1.10
3846;DHT22;1938;50.812;7.738;2023-03-17T09:05:46;12.80;1.10
3846;DHT22;1938;50.812;7.738;2023-03-17T09:08:11;13.10;2.90
3846;DHT22;1938;50.812;7.738;2023-03-17T09:10:37;13.20;3.80
3846;DHT22;1938;50.812;7.738;2023-03-17T09:13:04;13.00;2.10
3846;DHT22;1938;50.812;7.738;2023-03-17T09:15:31;12.70;1.00
3846;DHT22;1938;50.812;7.738;2023-03-17T09:17:58;12.40;1.00
3846;DHT22;1938;50.812;7.738;2023-03-17T09:20:23;12.60;1.00
3846;DHT22;1938;50.812;7.738;2023-03-17T09:22:50;13.10;2.70
3846;DHT22;1938;50.812;7.738;2023-03-17T09:25:16;13.80;7.20
3846;DHT22;1938;50.812;7.738;2023-03-17T09:27:41;14.30;11.90
3846;DHT22;1938;50.812;7.738;2023-03-17T09:30:08;14.90;15.50
3846;DHT22;1938;50.812;7.738;2023-03-17T09:32:35;15.10;17.30
3846;DHT22;1938;50.812;7.738;2023-03-17T09:35:02;15.40;19.80
3846;DHT22;1938;50.812;7.738;2023-03-17T09:37:28;15.70;21.50
3846;DHT22;1938;50.812;7.738;2023-03-17T09:39:54;16.10;24.80
3846;DHT22;1938;50.812;7.738;2023-03-17T09:42:40;16.30;25.70
3846;DHT22;1938;50.812;7.738;2023-03-17T09:45:37;16.50;27.00
3846;DHT22;1938;50.812;7.738;2023-03-17T09:53:21;17.10;31.10
3846;DHT22;1938;50.812;7.738;2023-03-17T09:55:54;17.30;32.80
3846;DHT22;1938;50.812;7.738;2023-03-17T09:58:27;17.60;36.60
3846;DHT22;1938;50.812;7.738;2023-03-17T10:00:53;17.70;37.50
3846;DHT22;1938;50.812;7.738;2023-03-17T10:03:20;17.70;36.30
3846;DHT22;1938;50.812;7.738;2023-03-17T10:05:47;17.70;35.90
3846;DHT22;1938;50.812;7.738;2023-03-17T10:08:18;17.80;35.30
3846;DHT22;1938;50.812;7.738;2023-03-17T10:11:01;17.90;37.20
3846;DHT22;1938;50.812;7.738;2023-03-17T10:13:50;18.00;36.60
3846;DHT22;1938;50.812;7.738;2023-03-17T10:16:21;18.00;36.50
3846;DHT22;1938;50.812;7.738;2023-03-17T10:18:54;18.10;35.90
3846;DHT22;1938;50.812;7.738;2023-03-17T10:21:33;18.10;36.60
3846;DHT22;1938;50.812;7.738;2023-03-17T10:24:00;18.10;35.80
3846;DHT22;1938;50.812;7.738;2023-03-17T10:26:35;18.10;35.30
3846;DHT22;1938;50.812;7.738;2023-03-17T10:29:18;18.00;33.30
3846;DHT22;1938;50.812;7.738;2023-03-17T10:31:47;18.10;31.70
3846;DHT22;1938;50.812;7.738;2023-03-17T10:34:17;18.00;31.30
3846;DHT22;1938;50.812;7.738;2023-03-17T10:36:48;17.90;29.10
3846;DHT22;1938;50.812;7.738;2023-03-17T10:39:19;17.90;29.10
3846;DHT22;1938;50.812;7.738;2023-03-17T10:41:55;17.90;28.60
3846;DHT22;1938;50.812;7.738;2023-03-17T10:44:32;17.60;26.10
3846;DHT22;1938;50.812;7.738;2023-03-17T10:47:01;17.70;25.70
3846;DHT22;1938;50.812;7.738;2023-03-17T10:49:34;17.80;26.10
3846;DHT22;1938;50.812;7.738;2023-03-17T10:52:07;17.70;24.60
3846;DHT22;1938;50.812;7.738;2023-03-17T10:54:47;17.70;23.60
3846;DHT22;1938;50.812;7.738;2023-03-17T10:57:13;17.50;21.50
3846;DHT22;1938;50.812;7.738;2023-03-17T10:59:51;17.50;20.40
3846;DHT22;1938;50.812;7.738;2023-03-17T11:02:24;17.40;19.20
3846;DHT22;1938;50.812;7.738;2023-03-17T11:04:54;17.40;18.40
3846;DHT22;1938;50.812;7.738;2023-03-17T11:07:32;17.40;18.10
3846;DHT22;1938;50.812;7.738;2023-03-17T11:10:00;17.40;17.60
3846;DHT22;1938;50.812;7.738;2023-03-17T11:12:37;17.30;16.30
3846;DHT22;1938;50.812;7.738;2023-03-17T11:15:14;17.20;13.80
3846;DHT22;1938;50.812;7.738;2023-03-17T11:20:28;17.00;12.30
3846;DHT22;1938;50.812;7.738;2023-03-17T11:25:39;16.90;9.70
3846;DHT22;1938;50.812;7.738;2023-03-17T11:28:25;16.90;8.40
3846;DHT22;1938;50.812;7.738;2023-03-17T11:31:14;16.80;7.00
3846;DHT22;1938;50.812;7.738;2023-03-17T11:33:57;16.90;7.40
3846;DHT22;1938;50.812;7.738;2023-03-17T11:36:56;17.00;8.00
3846;DHT22;1938;50.812;7.738;2023-03-17T11:39:39;17.00;6.90
3846;DHT22;1938;50.812;7.738;2023-03-17T11:44:54;16.90;6.20
3846;DHT22;1938;50.812;7.738;2023-03-17T11:50:39;17.00;5.70
3846;DHT22;1938;50.812;7.738;2023-03-17T11:53:18;16.80;4.40
3846;DHT22;1938;50.812;7.738;2023-03-17T11:55:55;16.50;1.00
3846;DHT22;1938;50.812;7.738;2023-03-17T11:58:27;16.50;1.00
3846;DHT22;1938;50.812;7.738;2023-03-17T12:00:59;16.60;1.00
3846;DHT22;1938;50.812;7.738;2023-03-17T12:03:47;16.70;1.00
3846;DHT22;1938;50.812;7.738;2023-03-17T12:06:19;16.80;1.00
3846;DHT22;1938;50.812;7.738;2023-03-17T12:08:51;16.60;1.00
3846;DHT22;1938;50.812;7.738;2023-03-17T12:11:25;16.20;1.00
3846;DHT22;1938;50.812;7.738;2023-03-17T12:14:05;16.30;1.00
3846;DHT22;1938;50.812;7.738;2023-03-17T12:16:38;16.10;1.00
3846;DHT22;1938;50.812;7.738;2023-03-17T12:19:12;16.20;1.00
3846;DHT22;1938;50.812;7.738;2023-03-17T12:24:18;16.30;1.00
3846;DHT22;1938;50.812;7.738;2023-03-17T12:32:23;16.30;1.00
3846;DHT22;1938;50.812;7.738;2023-03-17T12:34:55;16.50;1.00
3846;DHT22;1938;50.812;7.738;2023-03-17T12:37:21;16.60;1.00
3846;DHT22;1938;50.812;7.738;2023-03-17T12:39:54;16.70;1.00
3846;DHT22;1938;50.812;7.738;2023-03-17T12:45:02;17.00;1.00
3846;DHT22;1938;50.812;7.738;2023-03-17T12:50:48;17.00;1.00
3846;DHT22;1938;50.812;7.738;2023-03-17T12:53:28;17.00;1.00
3846;DHT22;1938;50.812;7.738;2023-03-17T12:56:06;16.90;1.00
3846;DHT22;1938;50.812;7.738;2023-03-17T12:58:37;17.00;1.00
3846;DHT22;1938;50.812;7.738;2023-03-17T13:01:30;16.90;1.00
3846;DHT22;1938;50.812;7.738;2023-03-17T13:07:13;16.90;1.00
3846;DHT22;1938;50.812;7.738;2023-03-17T13:09:46;17.10;1.00
3846;DHT22;1938;50.812;7.738;2023-03-17T13:21:10;17.10;1.00
3846;DHT22;1938;50.812;7.738;2023-03-17T13:23:52;17.10;1.00
3846;DHT22;1938;50.812;7.738;2023-03-17T13:26:21;17.10;1.00
3846;DHT22;1938;50.812;7.738;2023-03-17T13:28:48;17.10;1.00
3846;DHT22;1938;50.812;7.738;2023-03-17T13:34:01;17.00;1.00
3846;DHT22;1938;50.812;7.738;2023-03-17T13:47:42;16.90;1.00
3846;DHT22;1938;50.812;7.738;2023-03-17T13:50:14;16.80;1.00
3846;DHT22;1938;50.812;7.738;2023-03-17T13:52:46;16.70;1.00
3846;DHT22;1938;50.812;7.738;2023-03-17T14:00:45;16.30;1.00
3846;DHT22;1938;50.812;7.738;2023-03-17T14:03:19;16.20;1.00
3846;DHT22;1938;50.812;7.738;2023-03-17T14:05:49;16.10;1.00
3846;DHT22;1938;50.812;7.738;2023-03-17T14:10:58;16.20;1.00
3846;DHT22;1938;50.812;7.738;2023-03-17T14:17:03;16.20;1.00
3846;DHT22;1938;50.812;7.738;2023-03-17T14:19:34;16.30;1.00
3846;DHT22;1938;50.812;7.738;2023-03-17T14:22:22;16.30;1.00
3846;DHT22;1938;50.812;7.738;2023-03-17T14:24:53;16.20;1.00
3846;DHT22;1938;50.812;7.738;2023-03-17T14:27:21;16.10;1.00
3846;DHT22;1938;50.812;7.738;2023-03-17T14:29:46;16.10;1.00
3846;DHT22;1938;50.812;7.738;2023-03-17T14:32:14;16.00;1.00
3846;DHT22;1938;50.812;7.738;2023-03-17T14:34:53;16.10;1.00
3846;DHT22;1938;50.812;7.738;2023-03-17T14:37:21;16.10;1.00
3846;DHT22;1938;50.812;7.738;2023-03-17T14:39:49;16.20;1.00
3846;DHT22;1938;50.812;7.738;2023-03-17T14:42:18;16.10;1.00
3846;DHT22;1938;50.812;7.738;2023-03-17T14:44:44;16.10;1.00
3846;DHT22;1938;50.812;7.738;2023-03-17T14:47:19;16.00;1.00
3846;DHT22;1938;50.812;7.738;2023-03-17T14:49:51;15.90;1.00
3846;DHT22;1938;50.812;7.738;2023-03-17T14:52:23;15.70;1.00
3846;DHT22;1938;50.812;7.738;2023-03-17T14:54:52;15.60;1.00
3846;DHT22;1938;50.812;7.738;2023-03-17T14:57:25;15.50;1.00
3846;DHT22;1938;50.812;7.738;2023-03-17T15:00:02;15.40;1.00
3846;DHT22;1938;50.812;7.738;2023-03-17T15:02:39;15.40;1.00
3846;DHT22;1938;50.812;7.738;2023-03-17T15:08:00;15.20;1.00
3846;DHT22;1938;50.812;7.738;2023-03-17T15:10:27;15.10;1.00
3846;DHT22;1938;50.812;7.738;2023-03-17T15:13:03;15.00;1.00
3846;DHT22;1938;50.812;7.738;2023-03-17T15:15:37;15.00;1.00
3846;DHT22;1938;50.812;7.738;2023-03-17T15:18:08;15.00;1.00
3846;DHT22;1938;50.812;7.738;2023-03-17T15:20:35;15.00;1.00
3846;DHT22;1938;50.812;7.738;2023-03-17T15:23:14;15.00;1.00
3846;DHT22;1938;50.812;7.738;2023-03-17T15:25:44;15.10;1.00
3846;DHT22;1938;50.812;7.738;2023-03-17T15:28:18;15.10;1.00
3846;DHT22;1938;50.812;7.738;2023-03-17T15:30:48;15.00;1.00
3846;DHT22;1938;50.812;7.738;2023-03-17T15:35:44;14.90;1.00
3846;DHT22;1938;50.812;7.738;2023-03-17T15:38:11;14.90;1.00
3846;DHT22;1938;50.812;7.738;2023-03-17T15:40:36;14.80;1.00
3846;DHT22;1938;50.812;7.738;2023-03-17T15:43:02;14.70;1.00
3846;DHT22;1938;50.812;7.738;2023-03-17T15:45:28;14.70;1.00
3846;DHT22;1938;50.812;7.738;2023-03-17T15:47:54;14.60;1.00
3846;DHT22;1938;50.812;7.738;2023-03-17T15:50:26;14.60;1.00
3846;DHT22;1938;50.812;7.738;2023-03-17T15:52:54;14.50;1.00
3846;DHT22;1938;50.812;7.738;2023-03-17T15:55:29;14.40;1.00
3846;DHT22;1938;50.812;7.738;2023-03-17T15:57:58;14.40;1.00
3846;DHT22;1938;50.812;7.738;2023-03-17T16:00:26;14.30;1.00
3846;DHT22;1938;50.812;7.738;2023-03-17T16:02:54;14.20;1.00
3846;DHT22;1938;50.812;7.738;2023-03-17T16:05:24;14.20;1.00
3846;DHT22;1938;50.812;7.738;2023-03-17T16:07:50;14.20;1.00
3846;DHT22;1938;50.812;7.738;2023-03-17T16:12:44;14.20;1.00
3846;DHT22;1938;50.812;7.738;2023-03-17T16:15:14;14.10;1.00
3846;DHT22;1938;50.812;7.738;2023-03-17T16:17:40;14.10;1.00
3846;DHT22;1938;50.812;7.738;2023-03-17T16:20:12;14.10;1.00
3846;DHT22;1938;50.812;7.738;2023-03-17T16:22:42;14.00;1.00
3846;DHT22;1938;50.812;7.738;2023-03-17T16:27:44;13.90;1.00
3846;DHT22;1938;50.812;7.738;2023-03-17T16:30:31;13.90;1.00
3846;DHT22;1938;50.812;7.738;2023-03-17T16:33:07;13.80;1.00
3846;DHT22;1938;50.812;7.738;2023-03-17T16:35:33;13.80;1.00
3846;DHT22;1938;50.812;7.738;2023-03-17T16:38:00;13.70;1.00
3846;DHT22;1938;50.812;7.738;2023-03-17T16:40:28;13.70;1.00
3846;DHT22;1938;50.812;7.738;2023-03-17T16:42:57;13.70;1.00
3846;DHT22;1938;50.812;7.738;2023-03-17T16:45:32;13.70;1.00
3846;DHT22;1938;50.812;7.738;2023-03-17T16:48:00;13.60;1.00
3846;DHT22;1938;50.812;7.738;2023-03-17T16:50:28;13.50;1.00
3846;DHT22;1938;50.812;7.738;2023-03-17T16:52:55;13.50;1.00
3846;DHT22;1938;50.812;7.738;2023-03-17T16:55:22;13.40;1.00
3846;DHT22;1938;50.812;7.738;2023-03-17T16:57:50;13.40;1.00
3846;DHT22;1938;50.812;7.738;2023-03-17T17:00:21;13.40;1.00
3846;DHT22;1938;50.812;7.738;2023-03-17T17:02:47;13.30;1.00
3846;DHT22;1938;50.812;7.738;2023-03-17T17:05:18;13.30;1.00
3846;DHT22;1938;50.812;7.738;2023-03-17T17:07:44;13.30;1.00
3846;DHT22;1938;50.812;7.738;2023-03-17T17:10:11;13.20;1.00
3846;DHT22;1938;50.812;7.738;2023-03-17T17:12:38;13.10;1.00
3846;DHT22;1938;50.812;7.738;2023-03-17T17:15:03;13.10;1.00
3846;DHT22;1938;50.812;7.738;2023-03-17T17:17:29;13.10;1.00
3846;DHT22;1938;50.812;7.738;2023-03-17T17:19:55;13.10;1.00
3846;DHT22;1938;50.812;7.738;2023-03-17T17:22:20;13.00;1.00
3846;DHT22;1938;50.812;7.738;2023-03-17T17:24:46;13.00;1.00
3846;DHT22;1938;50.812;7.738;2023-03-17T17:27:11;12.90;1.00
3846;DHT22;1938;50.812;7.738;2023-03-17T17:29:38;12.90;1.00
3846;DHT22;1938;50.812;7.738;2023-03-17T17:32:04;12.80;1.00
3846;DHT22;1938;50.812;7.738;2023-03-17T17:34:30;12.80;1.00
3846;DHT22;1938;50.812;7.738;2023-03-17T17:36:56;12.70;1.00
3846;DHT22;1938;50.812;7.738;2023-03-17T17:39:22;12.70;1.00
3846;DHT22;1938;50.812;7.738;2023-03-17T17:41:47;12.60;1.00
3846;DHT22;1938;50.812;7.738;2023-03-17T17:44:14;12.60;1.00
3846;DHT22;1938;50.812;7.738;2023-03-17T17:46:39;12.50;1.00
3846;DHT22;1938;50.812;7.738;2023-03-17T17:49:05;12.50;1.00
3846;DHT22;1938;50.812;7.738;2023-03-17T17:51:31;12.40;1.00